sensor_id;sensor_type;location;lat;lon;timestamp;pressure;altitude;pressure_sealevel;temperature
9119;BMP180;4594;50.994;7.126;2022-12-18T00:01:29;101848.00;;;0.90
9119;BMP180;4594;50.994;7.126;2022-12-18T00:03:57;101825.00;;;1.00
9119;BMP180;4594;50.994;7.126;2022-12-18T00:06:27;101830.00;;;1.00
9119;BMP180;4594;50.994;7.126;2022-12-18T00:08:55;101816.00;;;0.90
9119;BMP180;4594;50.994;7.126;2022-12-18T00:11:24;101828.00;;;1.00
9119;BMP180;4594;50.994;7.126;2022-12-18T00:13:52;101814.00;;;1.00
9119;BMP180;4594;50.994;7.126;2022-12-18T00:16:21;101816.00;;;1.00
9119;BMP180;4594;50.994;7.126;2022-12-18T00:18:50;101834.00;;;1.00
9119;BMP180;4594;50.994;7.126;2022-12-18T00:21:16;101845.00;;;1.00
9119;BMP180;4594;50.994;7.126;2022-12-18T00:23:44;101845.00;;;1.00
9119;BMP180;4594;50.994;7.126;2022-12-18T00:26:15;101841.00;;;1.10
9119;BMP180;4594;50.994;7.126;2022-12-18T00:28:43;101847.00;;;1.10
9119;BMP180;4594;50.994;7.126;2022-12-18T00:31:13;101855.00;;;1.00
9119;BMP180;4594;50.994;7.126;2022-12-18T00:33:39;101848.00;;;1.00
9119;BMP180;4594;50.994;7.126;2022-12-18T00:36:09;101846.00;;;1.00
9119;BMP180;4594;50.994;7.126;2022-12-18T00:38:36;101828.00;;;1.00
9119;BMP180;4594;50.994;7.126;2022-12-18T00:41:02;101845.00;;;1.00
9119;BMP180;4594;50.994;7.126;2022-12-18T00:43:28;101843.00;;;1.00
9119;BMP180;4594;50.994;7.126;2022-12-18T00:45:54;101856.00;;;1.00
9119;BMP180;4594;50.994;7.126;2022-12-18T00:48:20;101833.00;;;1.00
9119;BMP180;4594;50.994;7.126;2022-12-18T00:50:48;101844.00;;;1.00
9119;BMP180;4594;50.994;7.126;2022-12-18T00:53:14;101831.00;;;1.00
9119;BMP180;4594;50.994;7.126;2022-12-18T00:55:41;101831.00;;;1.00
9119;BMP180;4594;50.994;7.126;2022-12-18T00:58:09;101833.00;;;1.00
9119;BMP180;4594;50.994;7.126;2022-12-18T01:00:36;101819.00;;;1.00
9119;BMP180;4594;50.994;7.126;2022-12-18T01:03:02;101811.00;;;1.00
9119;BMP180;4594;50.994;7.126;2022-12-18T01:05:28;101798.00;;;1.00
9119;BMP180;4594;50.994;7.126;2022-12-18T01:07:54;101837.00;;;1.00
9119;BMP180;4594;50.994;7.126;2022-12-18T01:10:20;101831.00;;;1.00
9119;BMP180;4594;50.994;7.126;2022-12-18T01:12:46;101817.00;;;1.00
9119;BMP180;4594;50.994;7.126;2022-12-18T01:15:14;101833.00;;;1.00
9119;BMP180;4594;50.994;7.126;2022-12-18T01:17:40;101829.00;;;1.10
9119;BMP180;4594;50.994;7.126;2022-12-18T01:20:07;101828.00;;;1.10
9119;BMP180;4594;50.994;7.126;2022-12-18T01:22:34;101830.00;;;1.10
9119;BMP180;4594;50.994;7.126;2022-12-18T01:25:01;101836.00;;;1.10
9119;BMP180;4594;50.994;7.126;2022-12-18T01:27:27;101823.00;;;1.10
9119;BMP180;4594;50.994;7.126;2022-12-18T01:29:53;101838.00;;;1.10
9119;BMP180;4594;50.994;7.126;2022-12-18T01:32:19;101833.00;;;1.20
9119;BMP180;4594;50.994;7.126;2022-12-18T01:34:45;101839.00;;;1.20
9119;BMP180;4594;50.994;7.126;2022-12-18T01:37:10;101827.00;;;1.20
9119;BMP180;4594;50.994;7.126;2022-12-18T01:39:36;101792.00;;;1.20
9119;BMP180;4594;50.994;7.126;2022-12-18T01:42:13;101823.00;;;1.20
9119;BMP180;4594;50.994;7.126;2022-12-18T01:45:02;101825.00;;;1.20
9119;BMP180;4594;50.994;7.126;2022-12-18T01:47:48;101812.00;;;1.20
9119;BMP180;4594;50.994;7.126;2022-12-18T01:50:32;101828.00;;;1.20
9119;BMP180;4594;50.994;7.126;2022-12-18T01:53:15;101833.00;;;1.20
9119;BMP180;4594;50.994;7.126;2022-12-18T01:55:50;101833.00;;;1.20
9119;BMP180;4594;50.994;7.126;2022-12-18T01:58:20;101824.00;;;1.20
9119;BMP180;4594;50.994;7.126;2022-12-18T02:00:48;101807.00;;;1.30
9119;BMP180;4594;50.994;7.126;2022-12-18T02:03:14;101817.00;;;1.20
9119;BMP180;4594;50.994;7.126;2022-12-18T02:06:26;101819.00;;;1.30
9119;BMP180;4594;50.994;7.126;2022-12-18T02:09:08;101818.00;;;1.30
9119;BMP180;4594;50.994;7.126;2022-12-18T02:14:37;101834.00;;;1.20
9119;BMP180;4594;50.994;7.126;2022-12-18T02:17:07;101823.00;;;1.20
9119;BMP180;4594;50.994;7.126;2022-12-18T02:20:07;101838.00;;;1.20
9119;BMP180;4594;50.994;7.126;2022-12-18T02:28:03;101823.00;;;1.10
9119;BMP180;4594;50.994;7.126;2022-12-18T02:30:33;101820.00;;;1.10
9119;BMP180;4594;50.994;7.126;2022-12-18T02:33:04;101822.00;;;1.10
9119;BMP180;4594;50.994;7.126;2022-12-18T02:35:32;101816.00;;;1.10
9119;BMP180;4594;50.994;7.126;2022-12-18T02:38:01;101808.00;;;1.10
9119;BMP180;4594;50.994;7.126;2022-12-18T02:40:29;101819.00;;;1.10
9119;BMP180;4594;50.994;7.126;2022-12-18T02:43:02;101792.00;;;1.10
9119;BMP180;4594;50.994;7.126;2022-12-18T02:45:28;101816.00;;;1.10
9119;BMP180;4594;50.994;7.126;2022-12-18T02:47:54;101804.00;;;1.10
9119;BMP180;4594;50.994;7.126;2022-12-18T02:50:34;101806.00;;;1.10
9119;BMP180;4594;50.994;7.126;2022-12-18T02:53:17;101799.00;;;1.00
9119;BMP180;4594;50.994;7.126;2022-12-18T02:56:00;101796.00;;;1.00
9119;BMP180;4594;50.994;7.126;2022-12-18T02:58:58;101795.00;;;1.00
9119;BMP180;4594;50.994;7.126;2022-12-18T03:04:26;101799.00;;;1.00
9119;BMP180;4594;50.994;7.126;2022-12-18T03:06:59;101792.00;;;1.00
9119;BMP180;4594;50.994;7.126;2022-12-18T03:09:35;101777.00;;;1.00
9119;BMP180;4594;50.994;7.126;2022-12-18T03:12:12;101808.00;;;1.00
9119;BMP180;4594;50.994;7.126;2022-12-18T03:15:22;101791.00;;;1.00
9119;BMP180;4594;50.994;7.126;2022-12-18T03:17:59;101781.00;;;1.00
9119;BMP180;4594;50.994;7.126;2022-12-18T03:20:30;101817.00;;;1.00
9119;BMP180;4594;50.994;7.126;2022-12-18T03:23:09;101791.00;;;1.00
9119;BMP180;4594;50.994;7.126;2022-12-18T03:25:40;101789.00;;;1.00
9119;BMP180;4594;50.994;7.126;2022-12-18T03:28:12;101754.00;;;1.10
9119;BMP180;4594;50.994;7.126;2022-12-18T03:30:44;101781.00;;;1.10
9119;BMP180;4594;50.994;7.126;2022-12-18T03:33:15;101780.00;;;1.10
9119;BMP180;4594;50.994;7.126;2022-12-18T03:35:44;101765.00;;;1.10
9119;BMP180;4594;50.994;7.126;2022-12-18T03:38:11;101757.00;;;1.20
9119;BMP180;4594;50.994;7.126;2022-12-18T03:50:13;101763.00;;;1.30
9119;BMP180;4594;50.994;7.126;2022-12-18T03:52:53;101765.00;;;1.30
9119;BMP180;4594;50.994;7.126;2022-12-18T03:55:25;101771.00;;;1.30
9119;BMP180;4594;50.994;7.126;2022-12-18T03:57:54;101780.00;;;1.30
9119;BMP180;4594;50.994;7.126;2022-12-18T04:00:20;101775.00;;;1.40
9119;BMP180;4594;50.994;7.126;2022-12-18T04:02:52;101758.00;;;1.40
9119;BMP180;4594;50.994;7.126;2022-12-18T04:05:20;101752.00;;;1.40
9119;BMP180;4594;50.994;7.126;2022-12-18T04:07:49;101755.00;;;1.50
9119;BMP180;4594;50.994;7.126;2022-12-18T04:10:16;101747.00;;;1.50
9119;BMP180;4594;50.994;7.126;2022-12-18T04:12:42;101745.00;;;1.50
9119;BMP180;4594;50.994;7.126;2022-12-18T04:15:09;101761.00;;;1.50
9119;BMP180;4594;50.994;7.126;2022-12-18T04:17:35;101744.00;;;1.50
9119;BMP180;4594;50.994;7.126;2022-12-18T04:20:01;101753.00;;;1.50
9119;BMP180;4594;50.994;7.126;2022-12-18T04:22:27;101733.00;;;1.50
9119;BMP180;4594;50.994;7.126;2022-12-18T04:24:52;101737.00;;;1.50
9119;BMP180;4594;50.994;7.126;2022-12-18T04:27:18;101751.00;;;1.50
9119;BMP180;4594;50.994;7.126;2022-12-18T04:29:44;101742.00;;;1.50
9119;BMP180;4594;50.994;7.126;2022-12-18T04:32:10;101767.00;;;1.50
9119;BMP180;4594;50.994;7.126;2022-12-18T04:34:35;101745.00;;;1.50
9119;BMP180;4594;50.994;7.126;2022-12-18T04:37:01;101766.00;;;1.50
9119;BMP180;4594;50.994;7.126;2022-12-18T04:39:27;101764.00;;;1.50
9119;BMP180;4594;50.994;7.126;2022-12-18T04:41:52;101757.00;;;1.50
9119;BMP180;4594;50.994;7.126;2022-12-18T04:44:18;101755.00;;;1.50
9119;BMP180;4594;50.994;7.126;2022-12-18T04:46:44;101765.00;;;1.50
9119;BMP180;4594;50.994;7.126;2022-12-18T04:49:10;101760.00;;;1.50
9119;BMP180;4594;50.994;7.126;2022-12-18T04:51:36;101761.00;;;1.50
9119;BMP180;4594;50.994;7.126;2022-12-18T04:54:03;101750.00;;;1.50
9119;BMP180;4594;50.994;7.126;2022-12-18T04:56:30;101771.00;;;1.50
9119;BMP180;4594;50.994;7.126;2022-12-18T04:58:56;101758.00;;;1.40
9119;BMP180;4594;50.994;7.126;2022-12-18T05:01:22;101751.00;;;1.40
9119;BMP180;4594;50.994;7.126;2022-12-18T05:03:47;101748.00;;;1.40
9119;BMP180;4594;50.994;7.126;2022-12-18T05:06:14;101740.00;;;1.40
9119;BMP180;4594;50.994;7.126;2022-12-18T05:08:40;101752.00;;;1.40
9119;BMP180;4594;50.994;7.126;2022-12-18T05:11:12;101750.00;;;1.40
9119;BMP180;4594;50.994;7.126;2022-12-18T05:13:39;101753.00;;;1.40
9119;BMP180;4594;50.994;7.126;2022-12-18T05:16:05;101730.00;;;1.40
9119;BMP180;4594;50.994;7.126;2022-12-18T05:18:31;101750.00;;;1.40
9119;BMP180;4594;50.994;7.126;2022-12-18T05:20:57;101733.00;;;1.40
9119;BMP180;4594;50.994;7.126;2022-12-18T05:23:24;101747.00;;;1.40
9119;BMP180;4594;50.994;7.126;2022-12-18T05:25:59;101755.00;;;1.40
9119;BMP180;4594;50.994;7.126;2022-12-18T05:28:28;101746.00;;;1.40
9119;BMP180;4594;50.994;7.126;2022-12-18T05:30:58;101718.00;;;1.40
9119;BMP180;4594;50.994;7.126;2022-12-18T05:33:26;101748.00;;;1.40
9119;BMP180;4594;50.994;7.126;2022-12-18T05:35:58;101743.00;;;1.40
9119;BMP180;4594;50.994;7.126;2022-12-18T05:38:30;101754.00;;;1.40
9119;BMP180;4594;50.994;7.126;2022-12-18T05:40:57;101755.00;;;1.40
9119;BMP180;4594;50.994;7.126;2022-12-18T05:43:24;101750.00;;;1.40
9119;BMP180;4594;50.994;7.126;2022-12-18T05:45:51;101742.00;;;1.40
9119;BMP180;4594;50.994;7.126;2022-12-18T05:48:19;101762.00;;;1.30
9119;BMP180;4594;50.994;7.126;2022-12-18T05:50:47;101765.00;;;1.40
9119;BMP180;4594;50.994;7.126;2022-12-18T05:53:16;101767.00;;;1.40
9119;BMP180;4594;50.994;7.126;2022-12-18T05:55:43;101743.00;;;1.30
9119;BMP180;4594;50.994;7.126;2022-12-18T05:58:11;101743.00;;;1.30
9119;BMP180;4594;50.994;7.126;2022-12-18T06:00:43;101776.00;;;1.30
9119;BMP180;4594;50.994;7.126;2022-12-18T06:03:10;101774.00;;;1.30
9119;BMP180;4594;50.994;7.126;2022-12-18T06:05:43;101785.00;;;1.30
9119;BMP180;4594;50.994;7.126;2022-12-18T06:08:09;101792.00;;;1.30
9119;BMP180;4594;50.994;7.126;2022-12-18T06:10:35;101786.00;;;1.20
9119;BMP180;4594;50.994;7.126;2022-12-18T06:13:01;101789.00;;;1.20
9119;BMP180;4594;50.994;7.126;2022-12-18T06:15:27;101788.00;;;1.20
9119;BMP180;4594;50.994;7.126;2022-12-18T06:17:52;101784.00;;;1.20
9119;BMP180;4594;50.994;7.126;2022-12-18T06:20:18;101797.00;;;1.20
9119;BMP180;4594;50.994;7.126;2022-12-18T06:22:44;101792.00;;;1.20
9119;BMP180;4594;50.994;7.126;2022-12-18T06:25:10;101814.00;;;1.10
9119;BMP180;4594;50.994;7.126;2022-12-18T06:27:36;101806.00;;;1.10
9119;BMP180;4594;50.994;7.126;2022-12-18T06:30:03;101813.00;;;1.10
9119;BMP180;4594;50.994;7.126;2022-12-18T06:32:28;101825.00;;;1.20
9119;BMP180;4594;50.994;7.126;2022-12-18T06:34:54;101806.00;;;1.20
9119;BMP180;4594;50.994;7.126;2022-12-18T06:37:21;101812.00;;;1.10
9119;BMP180;4594;50.994;7.126;2022-12-18T06:39:47;101825.00;;;1.10
9119;BMP180;4594;50.994;7.126;2022-12-18T06:42:13;101810.00;;;1.20
9119;BMP180;4594;50.994;7.126;2022-12-18T06:44:38;101791.00;;;1.10
9119;BMP180;4594;50.994;7.126;2022-12-18T06:47:04;101795.00;;;1.20
9119;BMP180;4594;50.994;7.126;2022-12-18T06:49:29;101790.00;;;1.10
9119;BMP180;4594;50.994;7.126;2022-12-18T06:51:55;101781.00;;;1.10
9119;BMP180;4594;50.994;7.126;2022-12-18T06:54:21;101789.00;;;1.10
9119;BMP180;4594;50.994;7.126;2022-12-18T06:56:47;101759.00;;;1.20
9119;BMP180;4594;50.994;7.126;2022-12-18T06:59:13;101781.00;;;1.10
9119;BMP180;4594;50.994;7.126;2022-12-18T07:01:40;101791.00;;;1.20
9119;BMP180;4594;50.994;7.126;2022-12-18T07:04:06;101792.00;;;1.20
9119;BMP180;4594;50.994;7.126;2022-12-18T07:06:32;101773.00;;;1.20
9119;BMP180;4594;50.994;7.126;2022-12-18T07:08:57;101802.00;;;1.20
9119;BMP180;4594;50.994;7.126;2022-12-18T07:11:23;101803.00;;;1.20
9119;BMP180;4594;50.994;7.126;2022-12-18T07:13:49;101791.00;;;1.20
9119;BMP180;4594;50.994;7.126;2022-12-18T07:16:20;101795.00;;;1.20
9119;BMP180;4594;50.994;7.126;2022-12-18T07:18:46;101774.00;;;1.20
9119;BMP180;4594;50.994;7.126;2022-12-18T07:21:15;101778.00;;;1.30
9119;BMP180;4594;50.994;7.126;2022-12-18T07:23:41;101800.00;;;1.30
9119;BMP180;4594;50.994;7.126;2022-12-18T07:26:12;101796.00;;;1.30
9119;BMP180;4594;50.994;7.126;2022-12-18T07:28:40;101804.00;;;1.40
9119;BMP180;4594;50.994;7.126;2022-12-18T07:31:16;101808.00;;;1.40
9119;BMP180;4594;50.994;7.126;2022-12-18T07:33:44;101797.00;;;1.40
9119;BMP180;4594;50.994;7.126;2022-12-18T07:36:11;101795.00;;;1.40
9119;BMP180;4594;50.994;7.126;2022-12-18T07:38:38;101790.00;;;1.40
9119;BMP180;4594;50.994;7.126;2022-12-18T07:41:11;101764.00;;;1.40
9119;BMP180;4594;50.994;7.126;2022-12-18T07:43:40;101791.00;;;1.50
9119;BMP180;4594;50.994;7.126;2022-12-18T07:46:07;101774.00;;;1.50
9119;BMP180;4594;50.994;7.126;2022-12-18T07:48:33;101772.00;;;1.50
9119;BMP180;4594;50.994;7.126;2022-12-18T07:51:02;101760.00;;;1.50
9119;BMP180;4594;50.994;7.126;2022-12-18T07:53:28;101777.00;;;1.60
9119;BMP180;4594;50.994;7.126;2022-12-18T07:56:02;101768.00;;;1.60
9119;BMP180;4594;50.994;7.126;2022-12-18T07:58:29;101750.00;;;1.80
9119;BMP180;4594;50.994;7.126;2022-12-18T08:01:09;101765.00;;;2.00
9119;BMP180;4594;50.994;7.126;2022-12-18T08:03:37;101765.00;;;2.20
9119;BMP180;4594;50.994;7.126;2022-12-18T08:06:06;101776.00;;;2.50
9119;BMP180;4594;50.994;7.126;2022-12-18T08:08:33;101773.00;;;2.80
9119;BMP180;4594;50.994;7.126;2022-12-18T08:10:59;101769.00;;;3.10
9119;BMP180;4594;50.994;7.126;2022-12-18T08:13:26;101749.00;;;3.50
9119;BMP180;4594;50.994;7.126;2022-12-18T08:16:06;101755.00;;;3.90
9119;BMP180;4594;50.994;7.126;2022-12-18T08:18:33;101748.00;;;4.30
9119;BMP180;4594;50.994;7.126;2022-12-18T08:21:12;101750.00;;;4.80
9119;BMP180;4594;50.994;7.126;2022-12-18T08:23:39;101751.00;;;5.20
9119;BMP180;4594;50.994;7.126;2022-12-18T08:26:05;101744.00;;;5.50
9119;BMP180;4594;50.994;7.126;2022-12-18T08:28:31;101747.00;;;5.80
9119;BMP180;4594;50.994;7.126;2022-12-18T08:30:57;101727.00;;;6.10
9119;BMP180;4594;50.994;7.126;2022-12-18T08:33:23;101726.00;;;6.40
9119;BMP180;4594;50.994;7.126;2022-12-18T08:35:49;101726.00;;;6.60
9119;BMP180;4594;50.994;7.126;2022-12-18T08:38:14;101717.00;;;6.80
9119;BMP180;4594;50.994;7.126;2022-12-18T08:40:40;101689.00;;;6.90
9119;BMP180;4594;50.994;7.126;2022-12-18T08:43:09;101702.00;;;7.10
9119;BMP180;4594;50.994;7.126;2022-12-18T08:45:53;101715.00;;;7.20
9119;BMP180;4594;50.994;7.126;2022-12-18T08:48:19;101717.00;;;7.20
9119;BMP180;4594;50.994;7.126;2022-12-18T08:50:55;101718.00;;;7.30
9119;BMP180;4594;50.994;7.126;2022-12-18T08:53:21;101743.00;;;7.30
9119;BMP180;4594;50.994;7.126;2022-12-18T08:55:47;101750.00;;;7.30
9119;BMP180;4594;50.994;7.126;2022-12-18T08:58:12;101748.00;;;7.30
9119;BMP180;4594;50.994;7.126;2022-12-18T09:00:38;101737.00;;;7.30
9119;BMP180;4594;50.994;7.126;2022-12-18T09:03:03;101740.00;;;7.30
9119;BMP180;4594;50.994;7.126;2022-12-18T09:05:30;101732.00;;;7.30
9119;BMP180;4594;50.994;7.126;2022-12-18T09:07:56;101737.00;;;7.20
9119;BMP180;4594;50.994;7.126;2022-12-18T09:10:21;101740.00;;;7.20
9119;BMP180;4594;50.994;7.126;2022-12-18T09:12:47;101735.00;;;7.30
9119;BMP180;4594;50.994;7.126;2022-12-18T09:15:13;101727.00;;;7.30
9119;BMP180;4594;50.994;7.126;2022-12-18T09:17:38;101733.00;;;7.30
9119;BMP180;4594;50.994;7.126;2022-12-18T09:20:05;101726.00;;;7.20
9119;BMP180;4594;50.994;7.126;2022-12-18T09:22:31;101728.00;;;7.20
9119;BMP180;4594;50.994;7.126;2022-12-18T09:24:56;101713.00;;;7.20
9119;BMP180;4594;50.994;7.126;2022-12-18T09:27:22;101731.00;;;7.20
9119;BMP180;4594;50.994;7.126;2022-12-18T09:29:48;101727.00;;;7.10
9119;BMP180;4594;50.994;7.126;2022-12-18T09:32:13;101715.00;;;7.10
9119;BMP180;4594;50.994;7.126;2022-12-18T09:34:39;101687.00;;;7.00
9119;BMP180;4594;50.994;7.126;2022-12-18T09:37:05;101716.00;;;7.10
9119;BMP180;4594;50.994;7.126;2022-12-18T09:39:31;101709.00;;;7.10
9119;BMP180;4594;50.994;7.126;2022-12-18T09:41:58;101704.00;;;7.20
9119;BMP180;4594;50.994;7.126;2022-12-18T09:44:36;101698.00;;;7.30
9119;BMP180;4594;50.994;7.126;2022-12-18T09:47:25;101713.00;;;7.30
9119;BMP180;4594;50.994;7.126;2022-12-18T09:50:27;101709.00;;;7.30
9119;BMP180;4594;50.994;7.126;2022-12-18T09:53:02;101709.00;;;7.40
9119;BMP180;4594;50.994;7.126;2022-12-18T09:55:35;101696.00;;;7.40
9119;BMP180;4594;50.994;7.126;2022-12-18T09:58:37;101690.00;;;7.40
9119;BMP180;4594;50.994;7.126;2022-12-18T10:01:32;101686.00;;;7.40
9119;BMP180;4594;50.994;7.126;2022-12-18T10:03:59;101705.00;;;7.40
9119;BMP180;4594;50.994;7.126;2022-12-18T10:07:24;101698.00;;;7.30
9119;BMP180;4594;50.994;7.126;2022-12-18T10:09:51;101702.00;;;7.30
9119;BMP180;4594;50.994;7.126;2022-12-18T10:12:41;101700.00;;;7.30
9119;BMP180;4594;50.994;7.126;2022-12-18T10:15:51;101682.00;;;7.20
9119;BMP180;4594;50.994;7.126;2022-12-18T10:18:56;101684.00;;;7.20
9119;BMP180;4594;50.994;7.126;2022-12-18T10:21:21;101660.00;;;7.20
9119;BMP180;4594;50.994;7.126;2022-12-18T10:24:12;101678.00;;;7.30
9119;BMP180;4594;50.994;7.126;2022-12-18T10:26:41;101655.00;;;7.30
9119;BMP180;4594;50.994;7.126;2022-12-18T10:29:15;101652.00;;;7.30
9119;BMP180;4594;50.994;7.126;2022-12-18T10:31:41;101656.00;;;7.30
9119;BMP180;4594;50.994;7.126;2022-12-18T10:34:12;101652.00;;;7.30
9119;BMP180;4594;50.994;7.126;2022-12-18T10:36:38;101667.00;;;7.40
9119;BMP180;4594;50.994;7.126;2022-12-18T10:39:19;101676.00;;;7.40
9119;BMP180;4594;50.994;7.126;2022-12-18T10:41:48;101679.00;;;7.30
9119;BMP180;4594;50.994;7.126;2022-12-18T10:44:22;101672.00;;;7.30
9119;BMP180;4594;50.994;7.126;2022-12-18T10:46:55;101673.00;;;7.30
9119;BMP180;4594;50.994;7.126;2022-12-18T10:49:32;101667.00;;;7.20
9119;BMP180;4594;50.994;7.126;2022-12-18T10:52:21;101665.00;;;7.20
9119;BMP180;4594;50.994;7.126;2022-12-18T10:54:58;101666.00;;;7.10
9119;BMP180;4594;50.994;7.126;2022-12-18T10:57:38;101663.00;;;7.10
9119;BMP180;4594;50.994;7.126;2022-12-18T11:02:50;101652.00;;;7.00
9119;BMP180;4594;50.994;7.126;2022-12-18T11:05:31;101654.00;;;7.00
9119;BMP180;4594;50.994;7.126;2022-12-18T11:07:59;101647.00;;;7.00
9119;BMP180;4594;50.994;7.126;2022-12-18T11:10:32;101631.00;;;7.00
9119;BMP180;4594;50.994;7.126;2022-12-18T11:13:21;101637.00;;;6.90
9119;BMP180;4594;50.994;7.126;2022-12-18T11:15:48;101656.00;;;6.90
9119;BMP180;4594;50.994;7.126;2022-12-18T11:21:06;101642.00;;;6.80
9119;BMP180;4594;50.994;7.126;2022-12-18T11:23:34;101639.00;;;6.80
9119;BMP180;4594;50.994;7.126;2022-12-18T11:26:03;101640.00;;;6.80
9119;BMP180;4594;50.994;7.126;2022-12-18T11:29:09;101625.00;;;6.70
9119;BMP180;4594;50.994;7.126;2022-12-18T11:31:36;101632.00;;;6.80
9119;BMP180;4594;50.994;7.126;2022-12-18T11:34:29;101643.00;;;6.80
9119;BMP180;4594;50.994;7.126;2022-12-18T11:36:57;101644.00;;;6.70
9119;BMP180;4594;50.994;7.126;2022-12-18T11:39:46;101632.00;;;6.70
9119;BMP180;4594;50.994;7.126;2022-12-18T11:42:35;101613.00;;;6.70
9119;BMP180;4594;50.994;7.126;2022-12-18T11:48:18;101615.00;;;6.70
9119;BMP180;4594;50.994;7.126;2022-12-18T11:51:00;101614.00;;;6.70
9119;BMP180;4594;50.994;7.126;2022-12-18T11:53:29;101597.00;;;6.70
9119;BMP180;4594;50.994;7.126;2022-12-18T11:56:30;101599.00;;;6.60
9119;BMP180;4594;50.994;7.126;2022-12-18T12:02:44;101581.00;;;6.60
9119;BMP180;4594;50.994;7.126;2022-12-18T12:05:18;101581.00;;;6.70
9119;BMP180;4594;50.994;7.126;2022-12-18T12:17:12;101606.00;;;6.60
9119;BMP180;4594;50.994;7.126;2022-12-18T12:25:31;101603.00;;;6.50
9119;BMP180;4594;50.994;7.126;2022-12-18T12:36:32;101579.00;;;6.20
9119;BMP180;4594;50.994;7.126;2022-12-18T12:39:09;101576.00;;;6.10
9119;BMP180;4594;50.994;7.126;2022-12-18T12:41:38;101571.00;;;6.10
9119;BMP180;4594;50.994;7.126;2022-12-18T12:44:30;101560.00;;;6.00
9119;BMP180;4594;50.994;7.126;2022-12-18T12:47:00;101564.00;;;6.00
9119;BMP180;4594;50.994;7.126;2022-12-18T12:49:32;101559.00;;;5.90
9119;BMP180;4594;50.994;7.126;2022-12-18T12:52:15;101574.00;;;5.90
9119;BMP180;4594;50.994;7.126;2022-12-18T12:54:44;101565.00;;;5.80
9119;BMP180;4594;50.994;7.126;2022-12-18T12:57:23;101592.00;;;5.80
9119;BMP180;4594;50.994;7.126;2022-12-18T13:08:06;101563.00;;;5.50
9119;BMP180;4594;50.994;7.126;2022-12-18T13:10:39;101549.00;;;5.40
9119;BMP180;4594;50.994;7.126;2022-12-18T13:13:11;101556.00;;;5.40
9119;BMP180;4594;50.994;7.126;2022-12-18T13:15:43;101551.00;;;5.40
9119;BMP180;4594;50.994;7.126;2022-12-18T13:21:03;101533.00;;;5.30
9119;BMP180;4594;50.994;7.126;2022-12-18T13:23:35;101540.00;;;5.40
9119;BMP180;4594;50.994;7.126;2022-12-18T13:31:01;101572.00;;;5.40
9119;BMP180;4594;50.994;7.126;2022-12-18T13:33:46;101537.00;;;5.40
9119;BMP180;4594;50.994;7.126;2022-12-18T13:36:33;101550.00;;;5.40
9119;BMP180;4594;50.994;7.126;2022-12-18T13:41:44;101544.00;;;5.30
9119;BMP180;4594;50.994;7.126;2022-12-18T13:44:40;101546.00;;;5.20
9119;BMP180;4594;50.994;7.126;2022-12-18T13:47:33;101543.00;;;5.20
9119;BMP180;4594;50.994;7.126;2022-12-18T13:50:09;101529.00;;;5.20
9119;BMP180;4594;50.994;7.126;2022-12-18T13:52:39;101537.00;;;5.20
9119;BMP180;4594;50.994;7.126;2022-12-18T13:55:15;101531.00;;;5.20
9119;BMP180;4594;50.994;7.126;2022-12-18T13:57:41;101534.00;;;5.20
9119;BMP180;4594;50.994;7.126;2022-12-18T14:02:49;101535.00;;;5.20
9119;BMP180;4594;50.994;7.126;2022-12-18T14:05:35;101528.00;;;5.20
9119;BMP180;4594;50.994;7.126;2022-12-18T14:08:08;101530.00;;;5.10
9119;BMP180;4594;50.994;7.126;2022-12-18T14:10:40;101521.00;;;5.10
9119;BMP180;4594;50.994;7.126;2022-12-18T14:13:09;101509.00;;;5.10
9119;BMP180;4594;50.994;7.126;2022-12-18T14:15:44;101518.00;;;5.10
9119;BMP180;4594;50.994;7.126;2022-12-18T14:21:03;101522.00;;;5.10
9119;BMP180;4594;50.994;7.126;2022-12-18T14:23:39;101523.00;;;5.00
9119;BMP180;4594;50.994;7.126;2022-12-18T14:26:30;101511.00;;;5.00
9119;BMP180;4594;50.994;7.126;2022-12-18T14:28:58;101503.00;;;4.90
9119;BMP180;4594;50.994;7.126;2022-12-18T14:31:30;101510.00;;;5.00
9119;BMP180;4594;50.994;7.126;2022-12-18T14:33:56;101506.00;;;5.00
9119;BMP180;4594;50.994;7.126;2022-12-18T14:36:28;101515.00;;;4.90
9119;BMP180;4594;50.994;7.126;2022-12-18T14:38:57;101498.00;;;4.90
9119;BMP180;4594;50.994;7.126;2022-12-18T14:41:24;101496.00;;;4.90
9119;BMP180;4594;50.994;7.126;2022-12-18T14:43:53;101497.00;;;4.90
9119;BMP180;4594;50.994;7.126;2022-12-18T14:46:35;101524.00;;;4.90
9119;BMP180;4594;50.994;7.126;2022-12-18T14:49:14;101494.00;;;4.90
9119;BMP180;4594;50.994;7.126;2022-12-18T14:51:55;101483.00;;;4.80
9119;BMP180;4594;50.994;7.126;2022-12-18T14:54:24;101504.00;;;4.80
9119;BMP180;4594;50.994;7.126;2022-12-18T14:59:31;101488.00;;;4.70
9119;BMP180;4594;50.994;7.126;2022-12-18T15:01:58;101481.00;;;4.70
9119;BMP180;4594;50.994;7.126;2022-12-18T15:04:33;101490.00;;;4.70
9119;BMP180;4594;50.994;7.126;2022-12-18T15:07:22;101487.00;;;4.70
9119;BMP180;4594;50.994;7.126;2022-12-18T15:10:23;101461.00;;;4.60
9119;BMP180;4594;50.994;7.126;2022-12-18T15:18:23;101462.00;;;4.60
9119;BMP180;4594;50.994;7.126;2022-12-18T15:21:00;101466.00;;;4.60
9119;BMP180;4594;50.994;7.126;2022-12-18T15:23:47;101460.00;;;4.50
9119;BMP180;4594;50.994;7.126;2022-12-18T15:26:16;101464.00;;;4.50
9119;BMP180;4594;50.994;7.126;2022-12-18T15:28:55;101461.00;;;4.50
9119;BMP180;4594;50.994;7.126;2022-12-18T15:31:34;101459.00;;;4.50
9119;BMP180;4594;50.994;7.126;2022-12-18T15:34:19;101455.00;;;4.40
9119;BMP180;4594;50.994;7.126;2022-12-18T15:36:46;101461.00;;;4.40
9119;BMP180;4594;50.994;7.126;2022-12-18T15:39:13;101453.00;;;4.40
9119;BMP180;4594;50.994;7.126;2022-12-18T15:41:39;101461.00;;;4.40
9119;BMP180;4594;50.994;7.126;2022-12-18T15:44:23;101481.00;;;4.40
9119;BMP180;4594;50.994;7.126;2022-12-18T15:46:50;101463.00;;;4.40
9119;BMP180;4594;50.994;7.126;2022-12-18T15:49:15;101484.00;;;4.40
9119;BMP180;4594;50.994;7.126;2022-12-18T15:51:41;101485.00;;;4.30
9119;BMP180;4594;50.994;7.126;2022-12-18T15:54:12;101474.00;;;4.30
9119;BMP180;4594;50.994;7.126;2022-12-18T15:56:40;101461.00;;;4.30
9119;BMP180;4594;50.994;7.126;2022-12-18T15:59:24;101466.00;;;4.30
9119;BMP180;4594;50.994;7.126;2022-12-18T16:01:51;101451.00;;;4.30
9119;BMP180;4594;50.994;7.126;2022-12-18T16:04:22;101450.00;;;4.30
9119;BMP180;4594;50.994;7.126;2022-12-18T16:06:49;101470.00;;;4.30
9119;BMP180;4594;50.994;7.126;2022-12-18T16:09:18;101463.00;;;4.30
9119;BMP180;4594;50.994;7.126;2022-12-18T16:11:44;101459.00;;;4.30
9119;BMP180;4594;50.994;7.126;2022-12-18T16:14:31;101468.00;;;4.30
9119;BMP180;4594;50.994;7.126;2022-12-18T16:17:00;101449.00;;;4.30
9119;BMP180;4594;50.994;7.126;2022-12-18T16:19:28;101453.00;;;4.20
9119;BMP180;4594;50.994;7.126;2022-12-18T16:21:57;101479.00;;;4.20
9119;BMP180;4594;50.994;7.126;2022-12-18T16:24:30;101452.00;;;4.30
9119;BMP180;4594;50.994;7.126;2022-12-18T16:26:58;101463.00;;;4.20
9119;BMP180;4594;50.994;7.126;2022-12-18T16:29:26;101451.00;;;4.20